createdAt,value
2019-02-22T00:00:42.074Z,2.63
2019-02-22T00:02:47.091Z,2.23
2019-02-22T00:04:52.107Z,2.30
2019-02-22T00:06:57.157Z,2.57
2019-02-22T00:09:02.490Z,2.43
2019-02-22T00:11:09.035Z,2.67
2019-02-22T00:13:14.274Z,2.20
2019-02-22T00:15:19.243Z,2.00
2019-02-22T00:17:24.151Z,2.50
2019-02-22T00:19:29.013Z,2.30
2019-02-22T00:21:34.210Z,1.90
2019-02-22T00:23:39.215Z,2.00
2019-02-22T00:25:44.112Z,2.10
2019-02-22T00:27:50.748Z,2.30
2019-02-22T00:30:07.334Z,2.33
2019-02-22T00:32:12.107Z,2.20
2019-02-22T00:34:16.955Z,2.37
2019-02-22T00:36:22.831Z,2.30
2019-02-22T00:38:27.769Z,2.30
2019-02-22T00:40:32.656Z,2.47
2019-02-22T00:42:37.587Z,2.00
2019-02-22T00:44:43.927Z,2.30
2019-02-22T00:46:49.014Z,2.07
2019-02-22T00:48:54.051Z,2.30
2019-02-22T00:50:59.016Z,2.40
2019-02-22T00:53:04.076Z,2.20
2019-02-22T00:55:08.924Z,2.23
2019-02-22T00:57:13.785Z,2.00
2019-02-22T00:59:18.789Z,2.20
2019-02-22T01:01:23.991Z,2.33
2019-02-22T01:03:30.489Z,2.30
2019-02-22T01:05:35.345Z,2.00
2019-02-22T01:07:41.425Z,2.37
2019-02-22T01:09:46.316Z,2.20
2019-02-22T01:11:51.229Z,1.80
2019-02-22T01:13:56.147Z,1.87
2019-02-22T01:16:01.081Z,1.90
2019-02-22T01:18:06.849Z,1.50
2019-02-22T01:20:11.615Z,1.77
2019-02-22T01:22:17.436Z,1.70
2019-02-22T01:24:22.628Z,1.80
2019-02-22T01:26:28.246Z,1.80
2019-02-22T01:28:33.141Z,2.20
2019-02-22T01:30:38.035Z,2.17
2019-02-22T01:32:42.882Z,2.07
2019-02-22T01:34:47.709Z,1.80
2019-02-22T01:36:52.630Z,1.83
2019-02-22T01:38:57.481Z,1.70
2019-02-22T01:41:02.285Z,1.90
2019-02-22T01:43:07.176Z,1.70
2019-02-22T01:45:12.034Z,1.87
2019-02-22T01:47:16.828Z,2.17
2019-02-22T01:49:21.624Z,1.63
2019-02-22T01:51:26.629Z,1.97
2019-02-22T01:53:31.352Z,1.70
2019-02-22T01:55:36.561Z,1.80
2019-02-22T01:57:41.916Z,2.00
2019-02-22T01:59:47.239Z,1.77
2019-02-22T02:01:52.068Z,1.53
2019-02-22T02:03:57.003Z,1.80
2019-02-22T02:06:02.030Z,2.10
2019-02-22T02:08:06.957Z,1.50
2019-02-22T02:10:11.910Z,1.50
2019-02-22T02:12:17.097Z,1.63
2019-02-22T02:14:21.922Z,1.90
2019-02-22T02:16:26.807Z,1.80
2019-02-22T02:18:31.689Z,1.77
2019-02-22T02:20:36.487Z,1.90
2019-02-22T02:22:41.321Z,1.70
2019-02-22T02:24:46.186Z,1.80
2019-02-22T02:26:50.953Z,1.63
2019-02-22T02:28:55.790Z,1.70
2019-02-22T02:31:00.708Z,1.60
2019-02-22T02:33:05.587Z,1.77
2019-02-22T02:35:10.376Z,1.50
2019-02-22T02:37:15.174Z,1.67
2019-02-22T02:39:19.901Z,1.90
2019-02-22T02:41:24.791Z,1.60
2019-02-22T02:43:29.495Z,1.73
2019-02-22T02:45:34.348Z,1.60
2019-02-22T02:47:40.298Z,1.80
2019-02-22T02:49:45.089Z,1.50
2019-02-22T02:51:50.008Z,1.70
2019-02-22T02:53:54.881Z,1.60
2019-02-22T02:55:59.806Z,1.80
2019-02-22T02:58:04.777Z,1.80
2019-02-22T03:00:10.054Z,1.70
2019-02-22T03:02:20.754Z,1.43
2019-02-22T03:04:25.648Z,1.70
2019-02-22T03:06:35.697Z,1.73
2019-02-22T03:08:40.780Z,1.90
2019-02-22T03:10:45.772Z,1.60
2019-02-22T03:12:50.810Z,1.50
2019-02-22T03:14:55.731Z,1.57
2019-02-22T03:17:00.469Z,1.90
2019-02-22T03:19:05.316Z,1.80
2019-02-22T03:21:10.499Z,1.30
2019-02-22T03:23:16.475Z,1.50
2019-02-22T03:25:21.316Z,1.37
2019-02-22T03:27:26.147Z,1.30
2019-02-22T03:29:30.867Z,1.70
2019-02-22T03:31:35.580Z,1.50
2019-02-22T03:33:40.348Z,1.50
2019-02-22T03:35:45.078Z,1.40
2019-02-22T03:37:49.764Z,1.67
2019-02-22T03:39:54.589Z,1.30
2019-02-22T03:41:59.399Z,1.50
2019-02-22T03:44:04.240Z,1.93
2019-02-22T03:46:09.162Z,1.50
2019-02-22T03:48:13.956Z,1.60
2019-02-22T03:50:18.671Z,1.40
2019-02-22T03:52:43.089Z,1.30
2019-02-22T03:54:47.843Z,1.70
2019-02-22T03:56:52.774Z,1.30
2019-02-22T03:58:57.569Z,1.40
2019-02-22T04:01:02.369Z,1.40
2019-02-22T04:03:07.182Z,1.33
2019-02-22T04:05:12.112Z,1.80
2019-02-22T04:07:17.109Z,1.30
2019-02-22T04:09:21.951Z,1.50
2019-02-22T04:11:26.707Z,1.47
2019-02-22T04:13:31.435Z,1.37
2019-02-22T04:15:37.512Z,1.37
2019-02-22T04:17:42.343Z,1.30
2019-02-22T04:19:47.164Z,1.33
2019-02-22T04:21:51.946Z,1.63
2019-02-22T04:23:56.755Z,1.20
2019-02-22T04:26:01.649Z,1.43
2019-02-22T04:28:06.373Z,1.57
2019-02-22T04:30:11.215Z,1.30
2019-02-22T04:32:16.001Z,1.40
2019-02-22T04:34:20.905Z,1.20
2019-02-22T04:36:25.774Z,1.30
2019-02-22T04:38:30.531Z,1.40
2019-02-22T04:40:35.373Z,1.43
2019-02-22T04:42:40.195Z,1.50
2019-02-22T04:44:45.098Z,1.33
2019-02-22T04:46:49.781Z,1.23
2019-02-22T04:48:54.526Z,1.30
2019-02-22T04:50:59.362Z,1.50
2019-02-22T04:53:04.130Z,1.30
2019-02-22T04:55:08.845Z,1.50
2019-02-22T04:57:13.729Z,1.30
2019-02-22T04:59:18.577Z,1.30
2019-02-22T05:01:24.008Z,1.10
2019-02-22T05:03:29.829Z,1.40
2019-02-22T05:05:35.569Z,1.23
2019-02-22T05:07:40.522Z,1.30
2019-02-22T05:09:45.563Z,1.10
2019-02-22T05:11:50.502Z,1.20
2019-02-22T05:14:02.181Z,1.40
2019-02-22T05:16:07.083Z,1.13
2019-02-22T05:18:11.938Z,1.30
2019-02-22T05:20:16.850Z,1.20
2019-02-22T05:22:23.113Z,1.13
2019-02-22T05:24:27.962Z,1.30
2019-02-22T05:26:32.883Z,1.30
2019-02-22T05:28:37.746Z,1.00
2019-02-22T05:30:42.609Z,1.20
2019-02-22T05:32:47.623Z,1.20
2019-02-22T05:34:52.494Z,1.20
2019-02-22T05:36:57.422Z,1.10
2019-02-22T05:39:02.262Z,1.30
2019-02-22T05:41:07.438Z,1.00
2019-02-22T05:43:12.240Z,1.20
2019-02-22T05:45:16.987Z,1.07
2019-02-22T05:47:21.862Z,1.00
2019-02-22T05:49:27.820Z,1.30
2019-02-22T05:51:32.581Z,1.20
2019-02-22T05:53:37.351Z,1.20
2019-02-22T05:55:44.304Z,1.30
2019-02-22T05:57:48.685Z,1.10
2019-02-22T05:59:55.612Z,1.07
2019-02-22T06:02:00.396Z,1.17
2019-02-22T06:04:05.180Z,1.30
2019-02-22T06:06:09.877Z,1.40
2019-02-22T06:08:14.818Z,1.00
2019-02-22T06:10:20.733Z,1.10
2019-02-22T06:12:34.240Z,1.30
2019-02-22T06:14:32.478Z,1.00
2019-02-22T06:16:44.958Z,1.20
2019-02-22T06:18:50.899Z,1.10
2019-02-22T06:20:55.698Z,1.20
2019-02-22T06:23:00.541Z,1.13
2019-02-22T06:25:06.096Z,1.27
2019-02-22T06:27:10.956Z,1.17
2019-02-22T06:29:15.785Z,1.40
2019-02-22T06:31:20.662Z,1.30
2019-02-22T06:33:25.571Z,1.40
2019-02-22T06:35:30.591Z,1.77
2019-02-22T06:37:35.572Z,1.20
2019-02-22T06:39:40.559Z,1.20
2019-02-22T06:41:45.617Z,1.70
2019-02-22T06:43:51.404Z,1.70
2019-02-22T06:45:56.265Z,1.40
2019-02-22T06:48:01.217Z,1.60
2019-02-22T06:50:06.499Z,1.30
2019-02-22T06:52:11.379Z,1.63
2019-02-22T06:54:16.249Z,1.43
2019-02-22T06:56:20.957Z,1.20
2019-02-22T06:58:25.869Z,1.83
2019-02-22T07:00:30.725Z,1.60
2019-02-22T07:02:35.607Z,1.53
2019-02-22T07:04:40.418Z,1.23
2019-02-22T07:06:47.113Z,1.60
2019-02-22T07:08:51.915Z,1.10
2019-02-22T07:11:15.720Z,1.17
2019-02-22T07:13:20.460Z,1.30
2019-02-22T07:15:25.261Z,1.33
2019-02-22T07:17:29.981Z,1.40
2019-02-22T07:19:34.960Z,1.50
2019-02-22T07:21:52.129Z,1.20
2019-02-22T07:23:47.662Z,1.40
2019-02-22T07:25:52.498Z,1.60
2019-02-22T07:27:57.443Z,1.50
2019-02-22T07:30:02.251Z,1.40
2019-02-22T07:32:07.197Z,1.30
2019-02-22T07:34:12.016Z,1.30
2019-02-22T07:36:16.787Z,1.50
2019-02-22T07:38:21.571Z,1.33
2019-02-22T07:40:26.525Z,1.47
2019-02-22T07:42:31.408Z,1.60
2019-02-22T07:44:36.339Z,1.37
2019-02-22T07:46:41.205Z,1.37
2019-02-22T07:48:46.575Z,1.50
2019-02-22T07:50:57.412Z,1.43
2019-02-22T07:52:57.934Z,1.67
2019-02-22T07:55:02.938Z,1.50
2019-02-22T07:57:08.038Z,1.33
2019-02-22T07:59:12.708Z,1.50
2019-02-22T08:01:17.464Z,1.30
2019-02-22T08:03:22.331Z,1.30
2019-02-22T08:05:28.412Z,1.60
2019-02-22T08:07:33.195Z,1.60
2019-02-22T08:09:38.180Z,1.60
2019-02-22T08:11:43.114Z,1.47
2019-02-22T08:13:48.050Z,1.27
2019-02-22T08:15:52.883Z,1.30
2019-02-22T08:17:57.726Z,1.30
2019-02-22T08:20:02.601Z,1.40
2019-02-22T08:22:07.665Z,1.50
2019-02-22T08:24:12.679Z,1.33
2019-02-22T08:26:17.435Z,1.30
2019-02-22T08:28:22.439Z,1.27
2019-02-22T08:30:28.367Z,1.20
2019-02-22T08:32:33.319Z,1.30
2019-02-22T08:34:38.118Z,1.20
2019-02-22T08:36:43.264Z,1.57
2019-02-22T08:38:48.135Z,1.40
2019-02-22T08:40:53.016Z,1.50
2019-02-22T08:42:57.960Z,1.40
2019-02-22T08:45:03.098Z,1.30
2019-02-22T08:47:08.408Z,1.33
2019-02-22T08:49:13.209Z,1.30
2019-02-22T08:51:18.057Z,1.30
2019-02-22T08:53:23.100Z,1.53
2019-02-22T08:55:28.139Z,1.40
2019-02-22T08:57:33.099Z,1.50
2019-02-22T08:59:37.870Z,1.33
2019-02-22T09:01:42.821Z,1.43
2019-02-22T09:03:50.942Z,1.43
2019-02-22T09:05:54.119Z,1.20
2019-02-22T09:07:59.043Z,1.30
2019-02-22T09:10:04.920Z,1.20
2019-02-22T09:12:09.806Z,1.20
2019-02-22T09:14:14.760Z,1.40
2019-02-22T09:16:19.629Z,1.20
2019-02-22T09:18:27.724Z,1.40
2019-02-22T09:20:33.218Z,1.33
2019-02-22T09:22:39.259Z,1.33
2019-02-22T09:24:44.319Z,1.60
2019-02-22T09:26:49.136Z,1.40
2019-02-22T09:28:55.607Z,1.30
2019-02-22T09:31:00.470Z,1.50
2019-02-22T09:33:05.257Z,1.20
2019-02-22T09:35:10.543Z,1.30
